Time;durP1;ratioP1;P1;durP2;ratioP2;P2;SDS_P1;SDS_P2;PMS_P1;PMS_P2;Temp;Humidity;BMP_temperature;BMP_pressure;BME280_temperature;BME280_humidity;BME280_pressure;Samples;Min_cycle;Max_cycle;Signal;HPM_P1;HPM_P2
2022/08/11 00:01:54;;;;;;;11.53;10.60;;;;;;;18.60;78.47;93004.50;5036209;28;20177;-70
2022/08/11 00:04:23;;;;;;;11.07;10.07;;;;;;;18.65;78.45;93014.13;5038426;28;20283;-69
2022/08/11 00:06:50;;;;;;;10.70;9.87;;;;;;;18.65;77.74;93009.63;5038514;28;20212;-69
2022/08/11 00:09:20;;;;;;;12.17;11.03;;;;;;;18.59;78.41;93013.56;5036495;28;20255;-70
2022/08/11 00:11:54;;;;;;;12.67;11.20;;;;;;;18.48;79.75;93015.00;5039301;28;20183;-69
2022/08/11 00:14:20;;;;;;;12.30;11.23;;;;;;;18.56;79.01;93018.69;5034332;28;20230;-69
2022/08/11 00:16:57;;;;;;;11.80;10.73;;;;;;;18.28;80.01;93010.34;5039818;28;20227;-69
2022/08/11 00:19:28;;;;;;;12.93;12.03;;;;;;;18.23;80.24;93002.59;5042200;28;20300;-70
2022/08/11 00:21:55;;;;;;;12.13;11.33;;;;;;;18.26;80.55;93006.47;5039174;28;20216;-69
2022/08/11 00:24:22;;;;;;;12.63;11.73;;;;;;;18.11;80.92;92993.75;5035899;28;20250;-69
2022/08/11 00:26:53;;;;;;;12.83;11.60;;;;;;;18.11;80.75;92997.19;5038848;28;20195;-69
2022/08/11 00:29:20;;;;;;;12.53;11.63;;;;;;;18.31;80.62;93009.72;5036362;28;20235;-70
2022/08/11 00:31:51;;;;;;;12.00;10.90;;;;;;;18.32;80.52;93008.63;5038383;28;20187;-70
2022/08/11 00:34:20;;;;;;;11.77;10.97;;;;;;;18.25;81.21;93005.72;5039073;28;20221;-69
2022/08/11 00:36:56;;;;;;;12.13;11.03;;;;;;;18.19;81.19;92993.75;5038276;28;20185;-69
2022/08/11 00:39:23;;;;;;;11.03;10.30;;;;;;;18.18;81.42;93004.63;5039539;28;20249;-69
2022/08/11 00:42:15;;;;;;;11.07;10.20;;;;;;;18.23;80.93;92999.16;5038218;28;20195;-70
2022/08/11 00:44:56;;;;;;;10.43;9.70;;;;;;;18.24;80.81;93004.13;5039146;28;20278;-70
2022/08/11 00:47:31;;;;;;;10.77;10.00;;;;;;;18.21;81.21;93004.75;5035860;28;20188;-69
2022/08/11 00:50:28;;;;;;;11.80;10.93;;;;;;;18.15;81.80;92999.97;5039137;28;20267;-71
2022/08/11 00:53:14;;;;;;;11.13;10.37;;;;;;;18.22;81.28;93000.25;5039546;28;20191;-69
2022/08/11 00:56:24;;;;;;;11.50;10.70;;;;;;;18.18;81.35;92994.81;5004087;28;20242;-70
2022/08/11 00:59:27;;;;;;;11.93;10.80;;;;;;;18.11;82.25;92993.75;5029767;28;20234;-69
2022/08/11 01:01:58;;;;;;;12.13;11.23;;;;;;;18.05;82.91;92995.81;5036725;28;20187;-69
2022/08/11 01:04:42;;;;;;;11.37;10.57;;;;;;;18.08;82.96;92992.53;5034326;28;20233;-70
2022/08/11 01:07:51;;;;;;;12.27;11.13;;;;;;;18.11;82.62;92999.03;5036509;28;20216;-69
2022/08/11 01:10:41;;;;;;;11.70;10.73;;;;;;;18.11;82.32;93007.75;5037979;28;20223;-69
2022/08/11 01:13:28;;;;;;;13.40;12.27;;;;;;;17.97;82.78;92996.59;5036876;28;20191;-70
2022/08/11 01:16:37;;;;;;;12.57;11.37;;;;;;;17.87;82.93;92982.94;5040913;28;20283;-69
2022/08/11 01:19:35;;;;;;;12.10;11.20;;;;;;;18.01;83.29;92996.75;5022114;28;20295;-69
2022/08/11 01:22:15;;;;;;;11.97;11.17;;;;;;;17.95;82.88;92992.69;5019376;28;20199;-69
2022/08/11 01:24:41;;;;;;;10.70;9.90;;;;;;;18.00;82.67;92997.81;5035999;28;20287;-70
2022/08/11 01:27:26;;;;;;;13.10;11.87;;;;;;;17.93;82.50;92973.75;5036939;28;20195;-69
2022/08/11 01:30:15;;;;;;;11.60;10.80;;;;;;;17.87;82.98;92977.66;5036625;28;21061;-70
2022/08/11 01:33:02;;;;;;;10.97;10.17;;;;;;;17.94;83.06;92991.16;5039784;28;20197;-70
2022/08/11 01:36:05;;;;;;;11.70;10.80;;;;;;;17.89;83.28;92983.38;5037513;28;20234;-69
2022/08/11 01:38:52;;;;;;;11.73;10.93;;;;;;;17.89;83.45;92981.53;5035350;28;20191;-69
2022/08/11 01:45:02;;;;;;;11.70;10.93;;;;;;;17.73;84.43;92985.75;5038627;28;20230;-70
2022/08/11 01:47:55;;;;;;;11.87;10.87;;;;;;;17.79;84.21;92986.38;5039773;28;20178;-70
2022/08/11 01:50:38;;;;;;;10.77;9.97;;;;;;;17.76;84.47;92989.63;5037488;28;20222;-70
2022/08/11 01:53:29;;;;;;;11.97;11.17;;;;;;;17.69;83.96;92976.91;5038192;28;20205;-70
2022/08/11 01:56:21;;;;;;;13.37;12.40;;;;;;;17.74;84.00;92989.94;5038730;28;20279;-70
2022/08/11 01:58:59;;;;;;;12.07;11.10;;;;;;;17.69;84.58;92986.69;5039020;28;20239;-70
2022/08/11 02:01:36;;;;;;;11.60;10.80;;;;;;;17.77;83.80;92972.69;5036178;28;20245;-70
2022/08/11 02:04:26;;;;;;;11.47;10.67;;;;;;;17.81;83.38;92979.69;5035481;28;20231;-70
2022/08/11 02:07:25;;;;;;;10.87;9.90;;;;;;;17.69;83.87;92981.41;5035208;28;20225;-69
2022/08/11 02:13:34;;;;;;;12.50;11.70;;;;;;;17.41;84.47;92960.59;4961634;29;20195;-70
2022/08/11 02:16:12;;;;;;;13.37;12.37;;;;;;;17.44;85.04;92980.34;5040910;28;20189;-68
2022/08/11 02:24:52;;;;;;;12.50;11.57;;;;;;;17.34;84.81;92970.81;5040117;28;20220;-69
2022/08/11 02:27:22;;;;;;;13.57;12.60;;;;;;;17.41;84.77;92981.72;5042224;28;20182;-68
2022/08/11 02:30:05;;;;;;;11.63;10.57;;;;;;;17.33;85.46;92977.19;5041770;28;20235;-70
2022/08/11 02:35:41;;;;;;;12.97;11.93;;;;;;;17.28;85.15;92980.00;5041010;28;20225;-70
2022/08/11 02:38:17;;;;;;;12.40;11.60;;;;;;;17.27;84.92;92975.81;5042078;28;20194;-69
2022/08/11 02:42:21;;;;;;;12.07;11.23;;;;;;;17.28;84.96;92974.72;5041804;28;20229;-69
2022/08/11 02:44:08;;;;;;;11.97;11.17;;;;;;;17.27;84.94;92969.75;5039856;28;20226;-69
2022/08/11 02:46:50;;;;;;;11.67;10.77;;;;;;;17.30;84.50;92974.41;5040573;28;20186;-69
2022/08/11 02:49:53;;;;;;;12.10;11.20;;;;;;;17.27;84.32;92981.09;5039020;28;20289;-69
2022/08/11 02:52:44;;;;;;;11.13;10.23;;;;;;;17.22;83.90;92978.59;5041821;28;20281;-69
2022/08/11 02:55:26;;;;;;;11.77;10.97;;;;;;;17.06;84.54;92945.81;5038092;28;20218;-69
2022/08/11 02:58:13;;;;;;;11.93;11.23;;;;;;;17.28;84.55;92977.34;5040667;28;20258;-70
2022/08/11 03:01:27;;;;;;;11.27;10.57;;;;;;;17.07;85.09;92965.06;5038621;28;20252;-70
2022/08/11 03:04:05;;;;;;;12.10;11.23;;;;;;;17.03;85.91;92970.19;5016422;28;20242;-69
2022/08/11 03:06:36;;;;;;;11.90;11.20;;;;;;;17.12;84.93;92978.88;5039474;28;20275;-70
2022/08/11 03:09:08;;;;;;;11.80;11.00;;;;;;;17.12;84.55;92984.16;5041259;28;20269;-69
2022/08/11 03:17:53;;;;;;;11.70;11.00;;;;;;;17.04;84.06;92979.63;5040990;28;20232;-69
2022/08/11 03:20:21;;;;;;;11.70;11.00;;;;;;;17.01;84.28;92977.63;5038825;28;20237;-70
2022/08/11 03:22:54;;;;;;;11.20;10.37;;;;;;;16.96;84.36;92980.44;5041193;28;20243;-70
2022/08/11 03:25:30;;;;;;;11.60;10.80;;;;;;;17.01;84.44;92988.16;5037353;28;20303;-69
2022/08/11 03:28:07;;;;;;;11.93;11.13;;;;;;;16.97;84.52;92987.25;5041925;28;20186;-70
2022/08/11 03:30:39;;;;;;;11.07;10.03;;;;;;;16.95;84.46;92986.00;5036178;28;20230;-70
2022/08/11 03:36:31;;;;;;;10.47;9.83;;;;;;;16.98;84.97;92980.88;5039339;28;20231;-69
2022/08/11 03:39:03;;;;;;;10.87;10.07;;;;;;;16.99;85.03;92982.44;5037182;28;20239;-70
2022/08/11 03:41:46;;;;;;;11.43;10.27;;;;;;;17.01;85.56;92974.97;5038324;28;20194;-70
2022/08/11 03:44:14;;;;;;;12.37;11.33;;;;;;;16.96;86.14;92975.16;5040966;28;20226;-70
2022/08/11 03:47:07;;;;;;;12.10;11.30;;;;;;;17.01;85.25;92982.91;5041499;28;20189;-70
2022/08/11 03:49:38;;;;;;;12.53;11.73;;;;;;;17.07;84.67;92984.31;5039517;28;20254;-69
2022/08/11 03:52:16;;;;;;;11.83;11.00;;;;;;;17.14;84.57;92992.56;5038846;28;20250;-69
2022/08/11 03:54:58;;;;;;;12.10;11.23;;;;;;;17.25;84.10;92982.47;5039235;28;20241;-69
2022/08/11 03:57:51;;;;;;;11.30;10.60;;;;;;;17.39;83.71;92988.38;5037662;28;20189;-69
2022/08/11 04:00:38;;;;;;;11.97;11.17;;;;;;;17.32;84.21;92988.81;5036032;28;20222;-70
2022/08/11 04:03:10;;;;;;;10.70;9.97;;;;;;;17.37;83.32;92991.31;5036101;28;20196;-69
2022/08/11 04:06:13;;;;;;;11.17;10.03;;;;;;;17.44;83.94;92988.25;5041394;28;20217;-69
2022/08/11 04:08:47;;;;;;;11.20;10.50;;;;;;;17.62;83.87;92996.94;4999913;28;20303;-69
2022/08/11 04:11:32;;;;;;;12.30;11.10;;;;;;;17.63;83.65;92994.75;4997972;28;20187;-69
2022/08/11 04:17:31;;;;;;;12.43;11.37;;;;;;;17.81;82.54;92994.75;5000085;28;20206;-69
2022/08/11 04:19:56;;;;;;;11.10;10.50;;;;;;;17.96;82.23;92991.63;4999745;28;20235;-68
2022/08/11 04:23:02;;;;;;;11.00;10.20;;;;;;;18.07;82.16;93001.53;4999103;28;20207;-69
2022/08/11 04:25:49;;;;;;;11.70;10.90;;;;;;;18.11;81.41;92994.53;5004177;28;20239;-69
2022/08/11 04:28:23;;;;;;;11.90;10.90;;;;;;;18.42;80.74;93005.69;4998424;28;20200;-69
2022/08/11 04:31:07;;;;;;;12.73;11.77;;;;;;;18.48;80.22;92993.06;5000493;28;20280;-69
2022/08/11 04:33:54;;;;;;;11.87;11.07;;;;;;;18.53;80.78;93006.09;5000533;28;20184;-69
2022/08/11 04:37:31;;;;;;;11.80;10.90;;;;;;;18.48;81.35;92998.34;4996442;28;20201;-70
2022/08/11 04:39:42;;;;;;;12.10;11.20;;;;;;;18.65;81.15;92993.75;4999927;28;20235;-69
2022/08/11 04:46:00;;;;;;;12.40;11.40;;;;;;;19.13;79.29;93003.94;5000179;28;20232;-69
2022/08/11 05:07:36;;;;;;;11.83;11.07;;;;;;;19.93;77.08;93021.28;4989426;28;20235;-70
2022/08/11 05:10:18;;;;;;;11.43;10.53;;;;;;;19.59;77.84;93016.28;5035985;28;20234;-71
2022/08/11 05:27:09;;;;;;;12.13;11.23;;;;;;;19.62;77.40;92984.63;5037671;28;20198;-69
2022/08/11 05:36:07;;;;;;;12.90;11.80;;;;;;;20.35;73.38;93005.00;5036901;28;20219;-70
2022/08/11 05:58:03;;;;;;;12.05;10.95;;;;;;;27.17;51.19;93030.25;5032622;28;20219;-69
2022/08/11 06:00:30;;;;;;;10.73;9.93;;;;;;;30.58;40.73;93040.66;5035531;28;20208;-70
2022/08/11 06:03:00;;;;;;;10.05;9.32;;;;;;;30.43;39.13;93028.38;5038240;28;20190;-70
2022/08/11 06:05:40;;;;;;;10.88;9.85;;;;;;;32.87;35.28;93044.84;5037304;28;20454;-70
2022/08/11 06:08:07;;;;;;;10.07;9.30;;;;;;;32.86;35.46;93047.97;5034977;28;20213;-70
2022/08/11 06:10:36;;;;;;;9.50;8.80;;;;;;;34.97;31.77;93045.94;5036566;28;20222;-70
2022/08/11 06:13:03;;;;;;;9.77;9.02;;;;;;;36.27;28.87;93047.53;5035707;28;20267;-70
2022/08/11 06:15:31;;;;;;;8.82;8.27;;;;;;;33.12;31.96;93036.41;5039489;28;20210;-70
2022/08/11 06:18:00;;;;;;;9.77;8.98;;;;;;;34.68;31.07;93041.50;5037164;28;20213;-70
2022/08/11 06:20:31;;;;;;;9.80;9.10;;;;;;;33.90;31.52;93040.22;5038298;28;20309;-70
2022/08/11 06:23:03;;;;;;;9.32;8.63;;;;;;;35.18;29.95;93037.31;5037567;28;20269;-71
2022/08/11 06:25:36;;;;;;;9.45;8.63;;;;;;;32.24;34.00;93022.03;5037900;28;20306;-69
2022/08/11 06:28:06;;;;;;;8.48;7.97;;;;;;;33.91;30.94;93035.56;5040450;28;20202;-70
2022/08/11 06:30:45;;;;;;;8.45;7.95;;;;;;;29.67;37.05;93022.81;5036428;28;20252;-70
2022/08/11 06:33:15;;;;;;;9.80;8.88;;;;;;;26.87;44.29;93010.84;5036274;28;20234;-70
2022/08/11 06:36:02;;;;;;;9.05;8.18;;;;;;;23.69;51.86;92998.25;5039132;28;20228;-71
2022/08/11 06:38:49;;;;;;;9.05;8.35;;;;;;;23.12;55.70;93004.22;5036995;28;20248;-70
2022/08/11 06:41:30;;;;;;;9.60;8.68;;;;;;;24.23;53.26;93009.69;5037626;28;20286;-69
2022/08/11 06:44:04;;;;;;;9.63;8.93;;;;;;;22.62;56.18;93001.50;5035811;28;20233;-71
2022/08/11 06:46:37;;;;;;;9.10;8.43;;;;;;;22.87;56.71;93002.09;5036927;28;20197;-70
2022/08/11 06:49:05;;;;;;;10.10;9.35;;;;;;;22.16;57.80;92999.50;5037816;28;20254;-70
2022/08/11 06:51:33;;;;;;;10.68;9.98;;;;;;;22.64;57.17;92993.16;5038270;28;20220;-71
2022/08/11 06:54:00;;;;;;;9.93;9.23;;;;;;;22.93;56.96;93006.81;5036272;28;20286;-70
2022/08/11 07:02:20;;;;;;;10.55;9.88;;;;;;;23.39;55.98;93014.00;5043252;28;20220;-70
2022/08/11 07:04:55;;;;;;;10.43;9.65;;;;;;;23.32;56.06;93005.84;5040533;28;20246;-68
2022/08/11 07:28:57;;;;;;;10.90;10.13;;;;;;;24.11;54.62;92998.38;5040712;28;20226;-69
2022/08/11 07:31:39;;;;;;;10.15;9.55;;;;;;;24.23;52.19;93022.25;5040644;28;20190;-67
2022/08/11 07:34:12;;;;;;;10.15;9.38;;;;;;;24.99;48.87;93024.78;5038194;28;20224;-69
2022/08/11 07:36:55;;;;;;;9.77;9.18;;;;;;;25.47;47.35;93021.38;5037836;28;20212;-68
2022/08/11 07:39:24;;;;;;;9.52;8.85;;;;;;;24.82;50.19;93019.94;5040625;28;20301;-69
2022/08/11 07:41:51;;;;;;;10.23;9.43;;;;;;;24.90;48.78;93029.59;5037531;28;20219;-67
2022/08/11 07:44:17;;;;;;;10.25;9.55;;;;;;;24.87;50.87;93025.72;5038207;28;20220;-69
2022/08/11 07:52:55;;;;;;;9.32;8.73;;;;;;;24.52;51.17;93021.66;5039231;28;20189;-70
2022/08/11 07:55:16;;;;;;;9.65;8.80;;;;;;;23.49;53.22;93016.13;5036643;28;20213;-68
2022/08/11 08:19:53;;;;;;;11.30;8.75;;;;;;;24.18;49.81;93004.63;5036113;28;20228;-68
2022/08/11 08:22:20;;;;;;;9.80;9.10;;;;;;;24.06;50.53;92998.66;5040993;28;20251;-68
2022/08/11 08:24:46;;;;;;;9.40;8.90;;;;;;;24.63;49.38;93014.59;5039454;28;20228;-68
2022/08/11 08:27:13;;;;;;;11.18;10.38;;;;;;;24.38;50.27;93016.81;5041346;28;20305;-68
2022/08/11 08:32:26;;;;;;;10.20;9.50;;;;;;;24.75;48.91;93006.44;5040770;28;20204;-69
2022/08/11 08:34:54;;;;;;;9.80;9.20;;;;;;;24.72;49.46;93002.59;5037793;28;20249;-69
2022/08/11 08:37:31;;;;;;;10.27;9.57;;;;;;;24.89;48.05;93004.00;5039186;28;20221;-69
2022/08/11 08:39:57;;;;;;;9.88;9.27;;;;;;;25.16;46.27;92986.88;5040102;28;20238;-68
2022/08/11 08:42:26;;;;;;;8.90;8.35;;;;;;;25.34;46.53;92977.25;5037765;28;20186;-68
2022/08/11 08:44:57;;;;;;;9.18;8.57;;;;;;;24.33;48.30;92992.34;5038125;28;20236;-69
2022/08/11 08:47:24;;;;;;;10.25;9.60;;;;;;;25.00;47.21;92976.34;5037957;28;20181;-69
2022/08/11 08:49:58;;;;;;;8.93;8.32;;;;;;;24.92;48.86;93000.63;5038660;28;20229;-67
2022/08/11 08:52:29;;;;;;;10.05;9.38;;;;;;;24.77;47.68;92996.19;5033410;28;20181;-69
2022/08/11 08:55:00;;;;;;;9.52;8.85;;;;;;;24.49;47.69;93006.34;5038269;28;20255;-68
2022/08/11 08:57:28;;;;;;;10.02;9.20;;;;;;;23.89;49.77;92999.06;5041307;28;20213;-69
2022/08/11 08:59:55;;;;;;;9.43;8.73;;;;;;;24.20;49.36;92983.72;5039651;28;20229;-69
2022/08/11 09:02:24;;;;;;;9.25;8.65;;;;;;;24.24;47.57;92970.41;5038249;28;20208;-68
2022/08/11 09:04:50;;;;;;;10.25;9.57;;;;;;;24.71;47.25;92977.03;5034965;28;20229;-68
2022/08/11 09:07:19;;;;;;;10.35;9.43;;;;;;;25.13;47.40;92987.59;5037172;28;20320;-69
2022/08/11 09:09:47;;;;;;;9.55;8.88;;;;;;;25.01;46.94;92982.47;5036601;28;20292;-68
2022/08/11 09:12:13;;;;;;;10.18;9.48;;;;;;;25.26;48.17;92970.25;5038750;28;20194;-69
2022/08/11 09:15:02;;;;;;;9.65;8.90;;;;;;;25.14;46.08;92957.84;5039630;28;20221;-68
2022/08/11 09:17:31;;;;;;;9.45;8.75;;;;;;;24.42;47.97;92987.53;5038032;28;20192;-69
2022/08/11 09:20:03;;;;;;;8.60;8.10;;;;;;;24.27;46.29;92865.63;5036779;28;20245;-69
2022/08/11 09:28:08;;;;;;;9.38;8.50;;;;;;;25.24;46.90;92973.28;5037354;28;20197;-68
2022/08/11 09:30:34;;;;;;;9.52;8.90;;;;;;;25.28;45.53;92978.66;5038171;28;20238;-69
2022/08/11 09:33:03;;;;;;;9.48;8.73;;;;;;;25.95;44.28;92969.66;5038974;28;20190;-69
2022/08/11 09:35:32;;;;;;;9.07;8.35;;;;;;;25.76;45.94;92980.50;5037273;28;20298;-71
2022/08/11 09:40:47;;;;;;;8.57;7.97;;;;;;;25.07;48.57;92973.75;5035804;28;20236;-69
2022/08/11 09:46:00;;;;;;;10.40;9.70;;;;;;;24.55;49.33;92964.88;5037936;28;20328;-69
2022/08/11 09:48:29;;;;;;;9.02;8.52;;;;;;;24.69;47.86;92960.56;5037804;28;20182;-69
2022/08/11 09:50:59;;;;;;;10.68;9.35;;;;;;;24.64;48.63;92960.09;5038522;28;20213;-69
2022/08/11 09:53:27;;;;;;;10.45;9.75;;;;;;;24.75;48.96;92955.69;5036712;28;20193;-70
2022/08/11 09:55:53;;;;;;;10.35;9.57;;;;;;;25.02;47.12;92959.94;5040248;28;20189;-68
2022/08/11 09:58:21;;;;;;;9.55;8.85;;;;;;;24.88;47.99;92954.38;5036422;28;20213;-69
2022/08/11 10:00:48;;;;;;;9.90;9.23;;;;;;;25.34;47.20;92961.19;5038150;28;20214;-68
2022/08/11 10:03:25;;;;;;;9.70;9.00;;;;;;;25.25;46.09;92952.66;5034680;28;20187;-69
2022/08/11 10:08:50;;;;;;;9.07;8.57;;;;;;;24.97;45.16;92942.31;5035320;28;20240;-69
2022/08/11 10:11:20;;;;;;;9.25;8.65;;;;;;;25.55;45.41;92947.34;5039053;28;20246;-70
2022/08/11 10:16:36;;;;;;;9.05;8.45;;;;;;;25.81;45.71;92940.06;5035475;28;20220;-69
2022/08/11 10:19:03;;;;;;;9.27;8.60;;;;;;;25.89;46.18;92936.31;5035818;28;20223;-68
2022/08/11 10:21:33;;;;;;;8.70;8.20;;;;;;;26.06;45.03;92946.50;5037092;28;20178;-69
2022/08/11 10:26:53;;;;;;;8.63;8.13;;;;;;;25.82;44.55;92948.84;5037696;28;20324;-70
2022/08/11 10:35:13;;;;;;;9.40;8.68;;;;;;;26.20;44.69;92949.31;5039347;28;20245;-69
2022/08/11 10:37:41;;;;;;;9.98;9.27;;;;;;;26.18;43.58;92940.88;5042435;28;20217;-68
2022/08/11 10:40:09;;;;;;;9.77;9.07;;;;;;;25.44;45.41;92938.41;5040263;28;20341;-68
2022/08/11 10:48:06;;;;;;;9.85;9.05;;;;;;;25.53;45.57;92936.25;5037953;28;20197;-69
2022/08/11 10:58:48;;;;;;;9.60;8.82;;;;;;;25.23;47.64;92930.88;5041454;28;20244;-68
2022/08/11 11:01:36;;;;;;;9.80;9.18;;;;;;;25.05;47.70;92921.81;5038209;28;20189;-70
2022/08/11 11:04:10;;;;;;;10.10;9.20;;;;;;;25.12;46.86;92921.94;5042104;28;20228;-69
2022/08/11 11:07:02;;;;;;;9.85;8.32;;;;;;;24.94;47.10;92923.56;5040867;28;20241;-69
2022/08/11 11:09:38;;;;;;;10.10;9.30;;;;;;;24.90;46.81;92904.78;5041290;28;20232;-68
2022/08/11 11:17:56;;;;;;;9.77;8.95;;;;;;;25.01;46.82;92921.00;5041178;28;20205;-68
2022/08/11 11:20:47;;;;;;;8.93;8.40;;;;;;;25.25;45.94;92925.91;5039431;28;20224;-69
2022/08/11 11:23:38;;;;;;;9.23;8.48;;;;;;;25.45;45.21;92921.25;5028097;28;20209;-69
2022/08/11 11:26:25;;;;;;;9.45;8.85;;;;;;;25.72;43.87;92918.16;5039882;28;20229;-68
2022/08/11 11:29:12;;;;;;;8.75;8.25;;;;;;;25.47;45.01;92922.44;5038122;28;20229;-69
2022/08/11 11:31:52;;;;;;;9.02;8.43;;;;;;;25.43;44.83;92913.59;5039713;28;20252;-68
2022/08/11 11:34:45;;;;;;;9.57;8.77;;;;;;;25.81;44.23;92921.31;5037277;28;20233;-68
2022/08/11 11:37:13;;;;;;;9.82;9.13;;;;;;;25.63;43.81;92912.31;5040991;28;20192;-68
2022/08/11 11:39:39;;;;;;;9.50;8.90;;;;;;;25.37;45.00;92901.66;5040028;28;20282;-68
2022/08/11 11:42:08;;;;;;;9.73;9.02;;;;;;;25.27;46.55;92921.78;5038309;28;20202;-69
2022/08/11 11:44:42;;;;;;;9.45;8.85;;;;;;;25.39;44.81;92920.78;5040306;28;20223;-68
2022/08/11 11:47:11;;;;;;;9.20;8.60;;;;;;;25.55;44.62;92918.72;5037285;28;20181;-68
2022/08/11 11:49:42;;;;;;;9.88;9.23;;;;;;;25.63;45.17;92912.31;5035210;28;20260;-69
2022/08/11 11:52:13;;;;;;;9.48;8.85;;;;;;;25.99;43.61;92917.00;5039037;28;20186;-69
2022/08/11 11:54:40;;;;;;;8.98;8.20;;;;;;;25.89;43.82;92904.22;5037800;28;20221;-68
2022/08/11 12:02:39;;;;;;;9.10;8.60;;;;;;;26.05;43.08;92899.47;5039352;28;20205;-68
2022/08/11 12:05:07;;;;;;;9.88;9.23;;;;;;;26.09;43.60;92908.28;5038839;28;20456;-69
2022/08/11 12:10:18;;;;;;;8.85;8.25;;;;;;;26.11;42.62;92876.56;5038243;28;20230;-68
2022/08/11 12:15:29;;;;;;;9.13;8.30;;;;;;;26.99;40.50;92889.97;5039567;28;20234;-69
2022/08/11 12:17:56;;;;;;;8.95;8.45;;;;;;;26.37;40.60;92883.69;5038412;28;20175;-69
2022/08/11 12:20:23;;;;;;;8.75;8.15;;;;;;;26.88;39.99;92867.66;5039768;28;20230;-69
2022/08/11 12:28:57;;;;;;;9.27;8.60;;;;;;;27.57;41.64;92890.69;5038877;28;20241;-68
2022/08/11 12:31:24;;;;;;;9.73;9.02;;;;;;;27.32;42.38;92892.47;5040870;28;20191;-69
2022/08/11 12:33:50;;;;;;;9.23;8.52;;;;;;;26.86;43.85;92891.38;5038131;28;20245;-68
2022/08/11 12:36:18;;;;;;;9.52;8.82;;;;;;;26.41;44.07;92877.22;5040052;28;20170;-69
2022/08/11 12:38:48;;;;;;;9.20;8.60;;;;;;;26.09;45.38;92894.13;5037745;28;20257;-69
2022/08/11 12:46:45;;;;;;;9.25;8.45;;;;;;;25.98;45.97;92894.00;5040627;28;20194;-68
2022/08/11 12:52:07;;;;;;;9.18;8.48;;;;;;;25.77;47.50;92888.41;5038425;28;20194;-69
2022/08/11 12:54:53;;;;;;;9.60;8.90;;;;;;;25.79;47.36;92898.75;5036358;28;20781;-69
2022/08/11 13:05:54;;;;;;;9.38;8.77;;;;;;;24.68;49.37;92886.16;5035801;28;20220;-68
2022/08/11 13:08:23;;;;;;;9.15;8.65;;;;;;;24.28;50.65;92885.88;5040830;28;20193;-72
2022/08/11 13:13:36;;;;;;;9.45;8.50;;;;;;;23.87;52.39;92891.94;5036384;28;20204;-69
2022/08/11 13:16:02;;;;;;;10.75;9.95;;;;;;;23.75;52.54;92900.88;5037145;28;20196;-69
2022/08/11 13:18:28;;;;;;;8.70;8.23;;;;;;;24.08;51.41;92903.06;5037395;28;20218;-70
2022/08/11 13:20:56;;;;;;;10.15;9.15;;;;;;;24.08;51.50;92906.47;5038392;28;20197;-68
2022/08/11 13:23:22;;;;;;;9.95;9.27;;;;;;;23.69;53.23;92908.38;5038712;28;20195;-69
2022/08/11 13:25:49;;;;;;;9.27;8.73;;;;;;;23.48;54.82;92902.66;5039649;28;20196;-68
2022/08/11 13:28:17;;;;;;;9.80;9.10;;;;;;;23.84;53.17;92906.00;5035919;28;20190;-69
2022/08/11 13:33:27;;;;;;;9.75;9.15;;;;;;;24.02;52.92;92910.56;5036267;28;20207;-69
2022/08/11 13:35:54;;;;;;;9.52;8.93;;;;;;;23.86;53.70;92906.41;5039313;28;20189;-69
2022/08/11 13:38:23;;;;;;;8.95;8.35;;;;;;;23.99;53.83;92903.25;5039461;28;20888;-71
2022/08/11 13:40:51;;;;;;;9.40;8.80;;;;;;;23.86;54.28;92893.09;5036696;28;20197;-68
2022/08/11 13:43:19;;;;;;;9.60;8.95;;;;;;;24.06;53.74;92894.63;5034620;28;20215;-68
2022/08/11 13:45:46;;;;;;;8.77;8.15;;;;;;;24.16;51.83;92886.00;5034200;28;20291;-70
2022/08/11 13:48:12;;;;;;;9.57;8.98;;;;;;;24.15;52.66;92901.28;5035821;28;20216;-69
2022/08/11 13:53:25;;;;;;;9.73;9.13;;;;;;;24.12;53.21;92891.31;5040202;28;20971;-69
2022/08/11 13:55:51;;;;;;;9.70;9.10;;;;;;;24.49;51.51;92891.53;5038920;28;20212;-69
2022/08/11 13:58:17;;;;;;;9.75;9.10;;;;;;;24.41;52.34;92887.22;5038628;28;20186;-69
2022/08/11 14:00:47;;;;;;;8.63;8.13;;;;;;;24.56;50.28;92873.72;5040214;28;20222;-69
2022/08/11 14:03:13;;;;;;;9.85;9.23;;;;;;;24.57;49.30;92869.16;5037804;28;20197;-68
2022/08/11 14:05:45;;;;;;;9.45;8.85;;;;;;;24.63;49.56;92879.19;5038901;28;20249;-69
2022/08/11 14:08:14;;;;;;;9.73;8.70;;;;;;;24.59;49.13;92869.59;5039174;28;20231;-69
2022/08/11 14:10:40;;;;;;;9.25;8.60;;;;;;;24.60;50.82;92879.91;5043564;28;20270;-68
2022/08/11 14:16:01;;;;;;;9.25;8.68;;;;;;;24.93;48.46;92849.91;5040252;28;20219;-69
2022/08/11 14:18:29;;;;;;;9.57;8.73;;;;;;;25.03;48.49;92876.75;5042756;28;20212;-69
2022/08/11 14:23:46;;;;;;;8.80;7.97;;;;;;;24.76;49.01;92863.78;5043873;28;20297;-70
2022/08/11 14:26:25;;;;;;;9.18;8.68;;;;;;;24.49;49.40;92840.81;5041954;28;20201;-69
2022/08/11 14:28:53;;;;;;;8.80;8.30;;;;;;;24.81;50.01;92863.47;5044199;28;20245;-68
2022/08/11 14:31:21;;;;;;;8.48;7.97;;;;;;;24.98;49.84;92863.69;5039188;28;20185;-68
2022/08/11 14:33:47;;;;;;;8.23;7.72;;;;;;;25.16;48.13;92863.94;5041604;28;20257;-68
2022/08/11 14:36:13;;;;;;;8.75;8.25;;;;;;;24.91;47.57;92866.28;5041032;28;20193;-68
2022/08/11 14:38:40;;;;;;;9.15;8.45;;;;;;;24.89;48.31;92863.19;5041944;28;20360;-69
2022/08/11 14:49:26;;;;;;;9.05;8.45;;;;;;;24.90;48.41;92848.69;5042017;28;20302;-68
2022/08/11 14:51:53;;;;;;;9.35;8.55;;;;;;;24.87;47.58;92854.75;5041237;28;20202;-68
2022/08/11 14:57:05;;;;;;;8.43;7.90;;;;;;;24.88;46.51;92844.84;5042284;28;20232;-68
2022/08/11 14:59:32;;;;;;;9.15;8.55;;;;;;;24.88;45.82;92840.28;5042177;28;20236;-68
2022/08/11 15:04:44;;;;;;;8.85;8.25;;;;;;;25.54;44.11;92860.25;5037751;28;20240;-68
2022/08/11 15:07:10;;;;;;;8.65;8.15;;;;;;;25.77;43.53;92845.63;5039821;28;20218;-69
2022/08/11 15:09:37;;;;;;;8.75;8.25;;;;;;;25.88;42.82;92854.53;5042109;28;20230;-68
2022/08/11 15:12:08;;;;;;;9.27;8.48;;;;;;;26.06;42.17;92847.47;5039064;28;20187;-67
2022/08/11 15:17:21;;;;;;;8.98;8.38;;;;;;;26.42;41.37;92849.31;5042252;28;20742;-68
2022/08/11 15:25:18;;;;;;;9.52;8.93;;;;;;;26.18;41.19;92849.84;5039251;28;20245;-68
2022/08/11 15:38:56;;;;;;;8.95;8.45;;;;;;;25.19;45.28;92820.47;5038047;28;20233;-69
2022/08/11 15:47:17;;;;;;;9.57;8.85;;;;;;;25.04;46.57;92832.84;5041499;28;20240;-68
2022/08/11 15:49:44;;;;;;;10.20;9.38;;;;;;;24.76;47.05;92829.81;5037474;28;20234;-68
2022/08/11 15:52:15;;;;;;;8.88;8.27;;;;;;;24.60;47.31;92834.50;5040465;28;20186;-69
2022/08/11 15:54:42;;;;;;;9.23;8.68;;;;;;;24.50;47.71;92831.69;5041416;28;20237;-68
2022/08/11 16:04:09;;;;;;;9.40;8.80;;;;;;;24.06;49.29;92828.72;5038255;28;20259;-67
2022/08/11 16:05:21;;;;;;;9.45;8.68;;;;;;;24.14;48.47;92837.59;5038430;28;20235;-69
2022/08/11 16:07:50;;;;;;;9.73;9.02;;;;;;;23.77;49.23;92843.41;5037623;28;20229;-68
2022/08/11 16:10:20;;;;;;;9.70;8.98;;;;;;;23.72;50.07;92851.69;5039448;28;20251;-69
2022/08/11 16:18:15;;;;;;;8.95;8.25;;;;;;;23.84;49.20;92841.97;5039744;28;20683;-67
2022/08/11 16:20:42;;;;;;;9.50;8.80;;;;;;;23.77;48.80;92841.88;5038711;28;20237;-69
2022/08/11 16:23:08;;;;;;;10.45;9.75;;;;;;;23.74;48.78;92830.78;5038587;28;20177;-68
2022/08/11 16:25:35;;;;;;;8.52;8.02;;;;;;;23.58;49.51;92837.34;5040537;28;20228;-69
2022/08/11 16:28:06;;;;;;;10.40;8.60;;;;;;;23.92;48.91;92849.78;5038755;28;20204;-69
2022/08/11 16:30:34;;;;;;;8.18;7.75;;;;;;;23.78;48.95;92844.94;5037774;28;20225;-69
2022/08/11 16:33:03;;;;;;;8.57;7.97;;;;;;;23.68;49.26;92848.19;5038336;28;20190;-70
2022/08/11 16:38:34;;;;;;;9.50;8.80;;;;;;;23.55;49.17;92838.78;5039280;28;20223;-68
2022/08/11 16:41:05;;;;;;;9.27;8.70;;;;;;;23.42;50.00;92853.41;5037910;28;20212;-68
2022/08/11 16:49:31;;;;;;;9.82;9.18;;;;;;;23.52;49.79;92868.03;5038314;28;20251;-68
2022/08/11 16:52:02;;;;;;;9.43;8.82;;;;;;;23.36;50.24;92865.44;5032993;28;20269;-68
2022/08/11 16:54:30;;;;;;;9.80;9.02;;;;;;;23.35;50.80;92868.47;5040252;28;20209;-68
2022/08/11 16:59:12;;;;;;;9.80;9.20;;;;;;;23.73;48.76;92865.78;5036326;28;20194;-67
2022/08/11 16:59:43;;;;;;;9.02;8.35;;;;;;;23.46;49.40;92872.13;5038329;28;20244;-69
2022/08/11 17:13:07;;;;;;;8.82;8.32;;;;;;;23.43;49.49;92870.16;5037533;28;20198;-68